logo dgac
Miércoles 22 de Mayo del 2019
Buscar por aerodromo o helipuerto
Ingrese nombre de aeródromo, localidad o designador OACI:
TAF: TAF SCTE 220437Z 2206/2306 VRB03KT 9999 OVC015 TN02/2211Z TX10/2218Z TEMPO 2208/2213 2000 BR OVC010 BECMG 2214/2216 SCT010 BKN015 BECMG 2217/2219 19006KT SCT020 BECMG 2222/2300 VRB03KT BKN015
TAF del 22/05/2019 a las 04:37 UTC
Período de validez: desde el 22 a las 06:00 UTC hasta el 23 a las 06:00 UTC
Viento: dirección variable, velocidad 3 nudos
Visibilidad: 10 km o más
Nubes: Cubierto a 1500 pies sobre el nivel del aeródromo
Temperatura mínima: 2ºC el 22 a las 11:00 UTC
Temperatura máxima: 10ºC el 22 a las 18:00 UTC
Se espera en forma temporal entre las 08:00 UTC del 22 y las 13:00 UTC del 22:
Visibilidad: 2000 metros
Neblina
Nubes: Cubierto a 1000 pies sobre el nivel del aeródromo
Se espera un cambio entre las 14:00 UTC del 22 y las 16:00 UTC del 22, :
Nubes: Nubosidad parcial a 1000 pies sobre el nivel del aeródromo
Nubes: Nublado a 1500 pies sobre el nivel del aeródromo
Se espera un cambio entre las 17:00 UTC del 22 y las 19:00 UTC del 22, :
Viento: dirección 190 grados, velocidad 6 nudos
Nubes: Nubosidad parcial a 2000 pies sobre el nivel del aeródromo
Se espera un cambio entre las 22:00 UTC del 22 y las 00:00 UTC del 23, :
Viento: dirección variable, velocidad 3 nudos
Nubes: Nublado a 1500 pies sobre el nivel del aeródromo